createdAt,value
2022-10-22T00:01:50.401Z,13.70
2022-10-22T00:05:32.385Z,13.60
2022-10-22T00:09:15.071Z,13.50
2022-10-22T00:12:57.137Z,13.40
2022-10-22T00:16:39.474Z,13.30
2022-10-22T00:20:22.838Z,13.30
2022-10-22T00:24:05.261Z,13.20
2022-10-22T00:27:47.260Z,13.30
2022-10-22T00:31:29.490Z,13.30
2022-10-22T00:35:11.496Z,13.30
2022-10-22T00:38:53.556Z,13.30
2022-10-22T00:42:35.792Z,13.30
2022-10-22T00:46:17.783Z,13.30
2022-10-22T00:50:01.136Z,13.30
2022-10-22T00:53:50.502Z,13.30
2022-10-22T00:57:34.182Z,13.30
2022-10-22T01:01:31.668Z,13.20
2022-10-22T01:05:13.878Z,13.20
2022-10-22T01:09:23.101Z,13.30
2022-10-22T01:13:38.176Z,13.30
2022-10-22T01:17:33.367Z,13.50
2022-10-22T01:21:27.332Z,13.50
2022-10-22T01:25:13.295Z,13.60
2022-10-22T01:28:58.180Z,13.60
2022-10-22T01:32:48.472Z,13.60
2022-10-22T01:36:35.776Z,13.60
2022-10-22T01:40:19.548Z,13.60
2022-10-22T01:44:01.430Z,13.70
2022-10-22T01:48:12.443Z,13.60
2022-10-22T01:52:53.527Z,13.60
2022-10-22T01:56:41.300Z,13.50
2022-10-22T02:00:23.864Z,13.40
2022-10-22T02:04:23.977Z,13.40
2022-10-22T02:08:20.426Z,13.30
2022-10-22T02:12:07.190Z,13.20
2022-10-22T02:15:51.847Z,13.10
2022-10-22T02:19:38.461Z,13.10
2022-10-22T02:23:22.293Z,12.90
2022-10-22T02:27:16.883Z,12.80
2022-10-22T02:31:24.280Z,12.70
2022-10-22T02:35:07.552Z,12.60
2022-10-22T02:38:51.800Z,12.50
2022-10-22T02:42:34.972Z,12.40
2022-10-22T02:46:16.833Z,12.30
2022-10-22T02:49:58.977Z,12.20
2022-10-22T02:53:40.839Z,12.10
2022-10-22T02:57:22.760Z,12.00
2022-10-22T03:01:04.810Z,11.90
2022-10-22T03:04:46.716Z,11.80
2022-10-22T03:08:28.719Z,11.70
2022-10-22T03:12:10.560Z,11.70
2022-10-22T03:15:52.886Z,11.60
2022-10-22T03:19:34.802Z,11.50
2022-10-22T03:23:19.896Z,11.40
2022-10-22T03:27:02.165Z,11.40
2022-10-22T03:30:44.071Z,11.30
2022-10-22T03:34:25.916Z,11.20
2022-10-22T03:38:08.096Z,11.20
2022-10-22T03:41:51.304Z,11.10
2022-10-22T03:45:33.146Z,11.10
2022-10-22T03:49:15.079Z,11.00
2022-10-22T03:52:58.260Z,11.00
2022-10-22T03:56:40.259Z,11.00
2022-10-22T04:00:22.178Z,11.00
2022-10-22T04:04:04.099Z,11.00
2022-10-22T04:07:45.960Z,10.90
2022-10-22T04:11:27.818Z,10.90
2022-10-22T04:15:09.977Z,10.90
2022-10-22T04:18:51.822Z,10.80
2022-10-22T04:22:35.498Z,10.80
2022-10-22T04:26:18.462Z,10.80
2022-10-22T04:30:00.373Z,10.70
2022-10-22T04:33:43.207Z,10.70
2022-10-22T04:37:25.028Z,10.60
2022-10-22T04:41:19.769Z,10.60
2022-10-22T04:45:01.688Z,10.60
2022-10-22T04:48:45.380Z,10.60
2022-10-22T04:52:27.270Z,10.60
2022-10-22T04:56:19.942Z,10.70
2022-10-22T05:00:01.988Z,10.70
2022-10-22T05:03:44.202Z,10.70
2022-10-22T05:07:26.411Z,10.70
2022-10-22T05:11:20.110Z,10.70
2022-10-22T05:15:02.512Z,10.70
2022-10-22T05:18:44.940Z,10.70
2022-10-22T05:22:26.844Z,10.70
2022-10-22T05:26:10.100Z,10.70
2022-10-22T05:29:52.043Z,10.70
2022-10-22T05:33:34.871Z,10.70
2022-10-22T05:37:16.700Z,10.70
2022-10-22T05:41:12.251Z,10.80
2022-10-22T05:44:54.211Z,10.80
2022-10-22T05:48:37.362Z,10.80
2022-10-22T05:52:19.167Z,10.80
2022-10-22T05:56:03.104Z,10.70
2022-10-22T05:59:45.159Z,10.70
2022-10-22T06:03:28.924Z,10.70
2022-10-22T06:07:15.694Z,10.60
2022-10-22T06:10:57.850Z,10.60
2022-10-22T06:14:39.760Z,10.50
2022-10-22T06:18:21.691Z,10.50
2022-10-22T06:22:05.166Z,10.40
2022-10-22T06:25:56.853Z,10.40
2022-10-22T06:29:38.744Z,10.40
2022-10-22T06:33:20.626Z,10.30
2022-10-22T06:37:02.459Z,10.30
2022-10-22T06:40:45.093Z,10.20
2022-10-22T06:44:26.901Z,10.20
2022-10-22T06:48:08.786Z,10.10
2022-10-22T06:51:52.543Z,10.10
2022-10-22T06:55:35.958Z,10.10
2022-10-22T06:59:17.797Z,10.10
2022-10-22T07:03:00.045Z,10.10
2022-10-22T07:06:42.100Z,10.10
2022-10-22T07:10:26.021Z,10.10
2022-10-22T07:14:12.680Z,10.10
2022-10-22T07:17:54.550Z,10.10
2022-10-22T07:21:36.700Z,10.10
2022-10-22T07:25:18.558Z,10.20
2022-10-22T07:29:01.096Z,10.20
2022-10-22T07:32:42.995Z,10.20
2022-10-22T07:36:24.927Z,10.30
2022-10-22T07:40:07.548Z,10.40
2022-10-22T07:43:50.812Z,10.40
2022-10-22T07:47:39.076Z,10.60
2022-10-22T07:51:27.911Z,10.60
2022-10-22T07:55:11.414Z,10.70
2022-10-22T07:58:59.444Z,10.90
2022-10-22T08:02:43.017Z,11.10
2022-10-22T08:10:44.007Z,11.90
2022-10-22T08:14:39.769Z,12.50
2022-10-22T08:18:21.651Z,13.10
2022-10-22T08:22:04.189Z,13.70
2022-10-22T08:26:18.851Z,14.40
2022-10-22T08:33:59.767Z,15.80
2022-10-22T08:37:41.963Z,16.60
2022-10-22T08:41:53.729Z,17.20
2022-10-22T08:46:15.302Z,17.70
2022-10-22T08:49:59.676Z,18.40
2022-10-22T08:54:05.646Z,18.50
2022-10-22T08:58:06.189Z,18.10
2022-10-22T09:06:44.472Z,17.70
2022-10-22T09:14:40.461Z,17.00
2022-10-22T09:22:54.054Z,16.50
2022-10-22T09:31:32.342Z,15.90
2022-10-22T09:35:15.584Z,16.00
2022-10-22T09:43:50.105Z,17.00
2022-10-22T09:48:00.673Z,17.80
2022-10-22T09:56:42.103Z,17.40
2022-10-22T10:00:34.182Z,17.10
2022-10-22T10:12:59.792Z,16.90
2022-10-22T10:16:59.140Z,17.10
2022-10-22T10:22:00.611Z,17.40
2022-10-22T10:25:58.315Z,17.60
2022-10-22T10:35:29.457Z,17.50
2022-10-22T10:48:27.608Z,18.00
2022-10-22T10:52:41.967Z,18.30
2022-10-22T11:00:51.861Z,18.40
2022-10-22T11:09:52.619Z,18.60
2022-10-22T11:14:22.647Z,18.90
2022-10-22T11:32:26.509Z,19.00
2022-10-22T11:36:23.873Z,19.00
2022-10-22T11:40:49.780Z,19.20
2022-10-22T11:44:47.050Z,19.40
2022-10-22T12:01:25.448Z,19.40
2022-10-22T12:09:18.734Z,19.30
2022-10-22T12:17:29.572Z,18.90
2022-10-22T12:21:22.395Z,18.50
2022-10-22T12:29:26.843Z,18.00
2022-10-22T12:33:46.595Z,18.00
2022-10-22T12:37:44.455Z,18.00
2022-10-22T12:41:58.765Z,18.00
2022-10-22T12:46:09.794Z,18.00
2022-10-22T12:54:39.869Z,18.00
2022-10-22T12:58:33.059Z,18.00
2022-10-22T13:02:33.387Z,18.00
2022-10-22T13:07:33.962Z,18.00
2022-10-22T13:11:34.840Z,18.10
2022-10-22T13:15:33.886Z,18.20
2022-10-22T13:23:38.632Z,18.30
2022-10-22T13:27:20.643Z,18.20
2022-10-22T13:31:12.991Z,18.30
2022-10-22T13:39:24.760Z,18.40
2022-10-22T13:43:06.827Z,18.40
2022-10-22T13:46:59.652Z,18.40
2022-10-22T13:55:29.057Z,18.40
2022-10-22T13:59:57.405Z,18.40
2022-10-22T14:07:34.557Z,18.50
2022-10-22T14:11:17.943Z,18.40
2022-10-22T14:15:20.019Z,18.40
2022-10-22T14:23:40.525Z,18.30
2022-10-22T14:27:32.141Z,18.30
2022-10-22T14:35:25.734Z,18.20
2022-10-22T14:39:21.899Z,18.30
2022-10-22T14:43:23.828Z,18.30
2022-10-22T14:47:16.273Z,18.30
2022-10-22T14:55:44.132Z,18.40
2022-10-22T14:59:41.876Z,18.40
2022-10-22T15:08:23.951Z,18.20
2022-10-22T15:12:06.203Z,18.10
2022-10-22T15:15:59.543Z,18.00
2022-10-22T15:27:54.882Z,17.80
2022-10-22T15:31:57.968Z,17.70
2022-10-22T15:35:42.871Z,17.70
2022-10-22T15:39:57.185Z,17.70
2022-10-22T15:43:39.424Z,17.60
2022-10-22T15:47:31.551Z,17.60
2022-10-22T15:55:33.955Z,17.50
2022-10-22T16:03:26.626Z,17.40
2022-10-22T16:07:15.405Z,17.30
2022-10-22T16:15:51.159Z,17.20
2022-10-22T16:19:40.005Z,17.10
2022-10-22T16:28:23.683Z,17.00
2022-10-22T16:40:37.195Z,16.60
2022-10-22T16:44:25.372Z,16.50
2022-10-22T16:53:00.619Z,16.40
2022-10-22T16:56:49.495Z,16.30
2022-10-22T17:00:31.964Z,16.30
2022-10-22T17:04:13.812Z,16.20
2022-10-22T17:07:55.916Z,16.20
2022-10-22T17:11:40.237Z,16.10
2022-10-22T17:15:24.411Z,16.10
2022-10-22T17:19:06.951Z,16.10
2022-10-22T17:22:49.715Z,16.00
2022-10-22T17:26:33.383Z,16.00
2022-10-22T17:30:23.442Z,16.00
2022-10-22T17:34:11.372Z,15.90
2022-10-22T17:37:53.255Z,15.70
2022-10-22T17:41:36.766Z,15.70
2022-10-22T17:45:18.743Z,15.70
2022-10-22T17:49:03.716Z,15.60
2022-10-22T17:52:45.607Z,15.50
2022-10-22T17:56:30.240Z,15.50
2022-10-22T18:00:14.036Z,15.40
2022-10-22T18:04:00.311Z,15.40
2022-10-22T18:07:42.149Z,15.30
2022-10-22T18:11:26.641Z,15.30
2022-10-22T18:15:08.853Z,15.30
2022-10-22T18:18:53.431Z,15.20
2022-10-22T18:22:36.054Z,15.20
2022-10-22T18:26:20.352Z,15.20
2022-10-22T18:30:05.622Z,15.10
2022-10-22T18:33:48.005Z,15.10
2022-10-22T18:37:30.802Z,15.10
2022-10-22T18:41:13.930Z,15.10
2022-10-22T18:44:55.819Z,15.10
2022-10-22T18:48:37.770Z,15.10
2022-10-22T18:52:19.579Z,15.10
2022-10-22T18:56:05.490Z,15.00
2022-10-22T18:59:47.345Z,15.00
2022-10-22T19:03:29.151Z,15.00
2022-10-22T19:07:12.303Z,14.90
2022-10-22T19:10:54.156Z,14.90
2022-10-22T19:14:36.504Z,14.90
2022-10-22T19:18:19.120Z,14.90
2022-10-22T19:22:00.997Z,14.90
2022-10-22T19:25:42.857Z,14.80
2022-10-22T19:29:25.006Z,14.80
2022-10-22T19:33:07.871Z,14.80
2022-10-22T19:36:51.906Z,14.80
2022-10-22T19:40:33.806Z,14.80
2022-10-22T19:44:15.864Z,14.80
2022-10-22T19:47:57.730Z,14.80
2022-10-22T19:51:40.269Z,14.80
2022-10-22T19:55:22.124Z,14.70
2022-10-22T19:59:05.229Z,14.70
2022-10-22T20:02:47.039Z,14.70
2022-10-22T20:06:29.825Z,14.70
2022-10-22T20:10:12.099Z,14.70
2022-10-22T20:13:54.535Z,14.70
2022-10-22T20:17:36.423Z,14.70
2022-10-22T20:21:20.196Z,14.70
2022-10-22T20:25:02.050Z,14.70
2022-10-22T20:28:44.054Z,14.70
2022-10-22T20:32:27.190Z,14.70
2022-10-22T20:36:18.954Z,14.80
2022-10-22T20:40:00.799Z,14.80
2022-10-22T20:43:46.761Z,14.90
2022-10-22T20:47:39.206Z,14.90
2022-10-22T20:51:30.984Z,14.90
2022-10-22T20:59:05.423Z,14.90
2022-10-22T21:02:47.364Z,14.90
2022-10-22T21:06:29.844Z,14.80
2022-10-22T21:10:11.681Z,14.80
2022-10-22T21:13:53.701Z,14.80
2022-10-22T21:17:35.796Z,14.80
2022-10-22T21:21:17.716Z,14.80
2022-10-22T21:24:59.733Z,14.80
2022-10-22T21:28:41.593Z,14.80
2022-10-22T21:32:23.510Z,14.80
2022-10-22T21:36:06.792Z,14.80
2022-10-22T21:39:49.175Z,14.70
2022-10-22T21:43:30.988Z,14.70
2022-10-22T21:47:12.914Z,14.70
2022-10-22T21:50:54.733Z,14.60
2022-10-22T21:54:37.514Z,14.60
2022-10-22T21:58:19.451Z,14.50
2022-10-22T22:02:04.958Z,14.40
2022-10-22T22:05:48.203Z,14.40
2022-10-22T22:09:30.055Z,14.30
2022-10-22T22:13:11.971Z,14.30
2022-10-22T22:16:53.877Z,14.40
2022-10-22T22:20:37.404Z,14.40
2022-10-22T22:24:19.240Z,14.40
2022-10-22T22:28:01.071Z,14.40
2022-10-22T22:31:43.664Z,14.50
2022-10-22T22:35:25.872Z,14.60
2022-10-22T22:39:10.614Z,14.50
2022-10-22T22:42:52.516Z,14.50
2022-10-22T22:46:35.238Z,14.50
2022-10-22T22:50:17.239Z,14.50
2022-10-22T22:54:00.298Z,14.50
2022-10-22T22:57:42.212Z,14.50
2022-10-22T23:01:26.543Z,14.50
2022-10-22T23:05:08.714Z,14.60
2022-10-22T23:08:52.246Z,14.60
2022-10-22T23:12:34.170Z,14.60
2022-10-22T23:16:21.366Z,14.60
2022-10-22T23:20:03.441Z,14.60
2022-10-22T23:23:47.202Z,14.60
2022-10-22T23:27:29.032Z,14.60
2022-10-22T23:31:13.645Z,14.60
2022-10-22T23:34:55.499Z,14.70
2022-10-22T23:38:38.944Z,14.60
2022-10-22T23:42:20.771Z,14.60
2022-10-22T23:46:06.962Z,14.60
2022-10-22T23:49:48.797Z,14.60
2022-10-22T23:53:31.162Z,14.60
2022-10-22T23:57:12.998Z,14.60
